createdAt,value
2019-02-11T00:00:59.999Z,1.87
2019-02-11T00:03:28.636Z,1.85
2019-02-11T00:05:57.311Z,1.80
2019-02-11T00:08:25.996Z,1.70
2019-02-11T00:10:54.673Z,1.70
2019-02-11T00:13:23.406Z,1.63
2019-02-11T00:15:52.112Z,1.60
2019-02-11T00:18:20.869Z,1.62
2019-02-11T00:20:49.573Z,1.57
2019-02-11T00:23:18.224Z,1.60
2019-02-11T00:25:46.918Z,1.40
2019-02-11T00:28:15.611Z,1.73
2019-02-11T00:30:44.309Z,1.32
2019-02-11T00:33:12.981Z,1.40
2019-02-11T00:35:41.660Z,1.20
2019-02-11T00:38:10.374Z,1.50
2019-02-11T00:40:39.069Z,1.10
2019-02-11T00:43:07.738Z,1.27
2019-02-11T00:45:36.544Z,1.10
2019-02-11T00:48:07.043Z,1.00
2019-02-11T00:50:35.679Z,1.50
2019-02-11T00:53:04.440Z,0.80
2019-02-11T00:55:33.157Z,1.10
2019-02-11T00:58:01.822Z,1.00
2019-02-11T01:00:30.490Z,0.90
2019-02-11T01:02:59.244Z,1.00
2019-02-11T01:05:27.912Z,0.90
2019-02-11T01:07:56.650Z,1.00
2019-02-11T01:10:25.359Z,1.00
2019-02-11T01:12:54.078Z,1.05
2019-02-11T01:15:22.991Z,0.70
2019-02-11T01:17:51.672Z,0.70
2019-02-11T01:20:20.386Z,0.85
2019-02-11T01:22:49.100Z,0.77
2019-02-11T01:25:17.819Z,0.90
2019-02-11T01:27:46.526Z,0.98
2019-02-11T01:30:15.202Z,1.35
2019-02-11T01:32:44.025Z,0.90
2019-02-11T01:35:12.774Z,1.07
2019-02-11T01:37:41.453Z,1.10
2019-02-11T01:40:11.092Z,0.90
2019-02-11T01:42:39.809Z,0.62
2019-02-11T01:45:10.628Z,0.80
2019-02-11T01:47:39.307Z,0.93
2019-02-11T01:50:08.936Z,0.70
2019-02-11T01:52:37.710Z,0.70
2019-02-11T01:55:06.427Z,1.00
2019-02-11T01:57:35.192Z,0.80
2019-02-11T02:00:04.079Z,1.00
2019-02-11T02:02:33.890Z,0.70
2019-02-11T02:05:02.646Z,0.72
2019-02-11T02:07:31.356Z,0.90
2019-02-11T02:10:00.034Z,0.90
2019-02-11T02:12:28.751Z,1.10
2019-02-11T02:14:57.422Z,0.85
2019-02-11T02:17:26.071Z,1.17
2019-02-11T02:19:54.754Z,0.85
2019-02-11T02:22:23.487Z,0.95
2019-02-11T02:24:52.172Z,0.80
2019-02-11T02:27:20.987Z,0.82
2019-02-11T02:29:49.655Z,1.00
2019-02-11T02:32:18.319Z,0.80
2019-02-11T02:34:47.065Z,1.02
2019-02-11T02:37:15.714Z,1.00
2019-02-11T02:39:44.374Z,0.80
2019-02-11T02:42:13.139Z,1.10
2019-02-11T02:44:41.843Z,1.10
2019-02-11T02:47:10.509Z,1.17
2019-02-11T02:49:39.219Z,1.10
2019-02-11T02:52:07.878Z,1.00
2019-02-11T02:54:36.563Z,1.13
2019-02-11T02:57:05.214Z,0.85
2019-02-11T02:59:33.887Z,1.17
2019-02-11T03:02:02.688Z,1.20
2019-02-11T03:04:31.404Z,1.20
2019-02-11T03:07:00.089Z,1.20
2019-02-11T03:09:28.802Z,1.23
2019-02-11T03:11:57.533Z,1.30
2019-02-11T03:14:26.294Z,1.10
2019-02-11T03:16:54.948Z,1.30
2019-02-11T03:19:23.608Z,1.17
2019-02-11T03:21:52.278Z,1.30
2019-02-11T03:24:21.046Z,1.30
2019-02-11T03:26:49.731Z,1.10
2019-02-11T03:29:18.407Z,0.98
2019-02-11T03:31:47.140Z,1.20
2019-02-11T03:34:15.908Z,1.37
2019-02-11T03:36:44.692Z,1.30
2019-02-11T03:39:14.308Z,1.00
2019-02-11T03:41:43.060Z,1.10
2019-02-11T03:44:15.122Z,1.20
2019-02-11T03:46:42.159Z,1.22
2019-02-11T03:49:10.811Z,1.37
2019-02-11T03:51:39.675Z,1.30
2019-02-11T03:54:08.318Z,1.52
2019-02-11T03:56:36.964Z,0.85
2019-02-11T03:59:05.635Z,1.40
2019-02-11T04:01:34.390Z,1.00
2019-02-11T04:04:03.125Z,1.17
2019-02-11T04:06:31.884Z,0.98
2019-02-11T04:09:00.629Z,1.42
2019-02-11T04:11:29.381Z,1.00
2019-02-11T04:13:58.106Z,0.95
2019-02-11T04:16:26.778Z,1.20
2019-02-11T04:18:55.518Z,1.40
2019-02-11T04:21:24.235Z,1.10
2019-02-11T04:23:52.915Z,1.32
2019-02-11T04:26:21.635Z,1.10
2019-02-11T04:28:50.327Z,0.90
2019-02-11T04:31:19.045Z,1.07
2019-02-11T04:33:47.789Z,1.07
2019-02-11T04:36:16.449Z,1.25
2019-02-11T04:38:45.199Z,1.35
2019-02-11T04:41:13.905Z,1.10
2019-02-11T04:43:42.670Z,1.12
2019-02-11T04:46:11.389Z,1.55
2019-02-11T04:48:40.089Z,1.40
2019-02-11T04:51:08.886Z,1.62
2019-02-11T04:53:37.596Z,1.37
2019-02-11T04:56:06.332Z,1.60
2019-02-11T04:58:35.024Z,1.80
2019-02-11T05:01:03.722Z,1.67
2019-02-11T05:03:32.402Z,1.82
2019-02-11T05:06:01.386Z,1.60
2019-02-11T05:08:30.221Z,1.55
2019-02-11T05:10:59.014Z,1.37
2019-02-11T05:13:27.668Z,1.82
2019-02-11T05:15:56.318Z,1.45
2019-02-11T05:18:26.083Z,1.42
2019-02-11T05:20:54.771Z,1.30
2019-02-11T05:23:23.514Z,1.45
2019-02-11T05:25:52.174Z,1.82
2019-02-11T05:28:20.915Z,1.67
2019-02-11T05:30:49.657Z,1.60
2019-02-11T05:33:18.467Z,1.72
2019-02-11T05:35:47.682Z,1.77
2019-02-11T05:38:17.447Z,1.53
2019-02-11T05:40:46.140Z,1.40
2019-02-11T05:43:14.869Z,1.87
2019-02-11T05:45:43.638Z,1.27
2019-02-11T05:48:12.334Z,2.00
2019-02-11T05:50:40.972Z,1.75
2019-02-11T05:53:09.634Z,1.67
2019-02-11T05:55:38.319Z,1.80
2019-02-11T05:58:06.985Z,2.20
2019-02-11T06:00:35.670Z,1.40
2019-02-11T06:03:04.355Z,1.72
2019-02-11T06:05:33.016Z,1.80
2019-02-11T06:08:01.667Z,1.80
2019-02-11T06:10:30.434Z,1.60
2019-02-11T06:12:59.077Z,1.90
2019-02-11T06:15:27.809Z,1.57
2019-02-11T06:17:56.562Z,1.65
2019-02-11T06:20:25.448Z,2.00
2019-02-11T06:22:54.171Z,1.47
2019-02-11T06:25:22.900Z,1.55
2019-02-11T06:27:51.633Z,1.52
2019-02-11T06:30:20.279Z,1.52
2019-02-11T06:32:48.934Z,1.95
2019-02-11T06:35:17.591Z,1.57
2019-02-11T06:37:46.275Z,2.07
2019-02-11T06:40:14.926Z,2.30
2019-02-11T06:42:43.591Z,2.08
2019-02-11T06:45:13.463Z,1.80
2019-02-11T06:47:42.436Z,1.67
2019-02-11T06:50:11.854Z,2.37
2019-02-11T06:52:40.761Z,1.98
2019-02-11T06:55:09.979Z,1.90
2019-02-11T06:57:38.818Z,1.73
2019-02-11T07:00:08.804Z,2.02
2019-02-11T07:02:37.540Z,1.82
2019-02-11T07:05:06.439Z,2.40
2019-02-11T07:07:36.691Z,2.05
2019-02-11T07:10:06.059Z,1.75
2019-02-11T07:12:34.814Z,2.27
2019-02-11T07:15:03.491Z,1.85
2019-02-11T07:17:32.271Z,2.33
2019-02-11T07:20:01.027Z,1.82
2019-02-11T07:22:29.913Z,2.65
2019-02-11T07:24:58.719Z,2.15
2019-02-11T07:27:27.505Z,2.65
2019-02-11T07:29:56.299Z,1.77
2019-02-11T07:32:25.084Z,2.20
2019-02-11T07:34:53.905Z,1.90
2019-02-11T07:37:22.559Z,2.13
2019-02-11T07:39:51.264Z,1.92
2019-02-11T07:42:30.556Z,1.70
2019-02-11T07:45:02.321Z,2.25
2019-02-11T07:47:30.989Z,2.12
2019-02-11T07:50:00.759Z,2.55
2019-02-11T07:52:29.507Z,2.25
2019-02-11T07:54:58.303Z,1.85
2019-02-11T07:57:27.009Z,2.33
2019-02-11T07:59:57.282Z,2.17
2019-02-11T08:02:26.191Z,2.22
2019-02-11T08:04:54.902Z,1.85
2019-02-11T08:07:23.579Z,2.05
2019-02-11T08:09:52.258Z,2.42
2019-02-11T08:12:21.099Z,1.97
2019-02-11T08:14:49.817Z,2.12
2019-02-11T08:17:18.510Z,1.95
2019-02-11T08:19:47.231Z,2.83
2019-02-11T08:22:15.978Z,2.05
2019-02-11T08:24:44.678Z,2.35
2019-02-11T08:27:13.355Z,2.17
2019-02-11T08:29:42.004Z,2.20
2019-02-11T08:32:10.694Z,1.90
2019-02-11T08:34:39.454Z,2.30
2019-02-11T08:37:08.356Z,2.27
2019-02-11T08:39:37.088Z,2.10
2019-02-11T08:42:05.804Z,1.75
2019-02-11T08:44:34.470Z,2.20
2019-02-11T08:47:03.315Z,2.35
2019-02-11T08:49:32.055Z,2.22
2019-02-11T08:52:00.784Z,1.67
2019-02-11T08:54:29.519Z,2.60
2019-02-11T08:56:58.180Z,2.02
2019-02-11T08:59:26.994Z,2.10
2019-02-11T09:01:55.708Z,2.10
2019-02-11T09:04:25.437Z,1.87
2019-02-11T09:06:54.129Z,2.05
2019-02-11T09:09:22.884Z,1.85
2019-02-11T09:11:51.584Z,2.22
2019-02-11T09:14:20.421Z,2.30
2019-02-11T09:16:49.217Z,2.22
2019-02-11T09:19:17.903Z,1.92
2019-02-11T09:21:46.599Z,2.22
2019-02-11T09:24:15.338Z,2.15
2019-02-11T09:26:44.059Z,2.37
2019-02-11T09:29:12.859Z,2.53
2019-02-11T09:31:41.653Z,2.40
2019-02-11T09:34:10.317Z,2.02
2019-02-11T09:36:39.187Z,1.72
2019-02-11T09:39:08.799Z,1.90
2019-02-11T09:41:37.447Z,2.23
2019-02-11T09:44:06.194Z,1.75
2019-02-11T09:46:35.007Z,2.10
2019-02-11T09:49:04.026Z,1.67
2019-02-11T09:51:33.657Z,2.25
2019-02-11T09:54:02.358Z,2.10
2019-02-11T09:56:31.031Z,2.10
2019-02-11T09:58:59.803Z,1.87
2019-02-11T10:01:29.511Z,2.10
2019-02-11T10:03:58.228Z,1.60
2019-02-11T10:06:26.920Z,1.85
2019-02-11T10:08:55.597Z,1.90
2019-02-11T10:11:24.315Z,1.77
2019-02-11T10:13:53.088Z,2.33
2019-02-11T10:16:22.311Z,1.80
2019-02-11T10:18:51.055Z,2.07
2019-02-11T10:21:19.718Z,1.37
2019-02-11T10:23:48.427Z,2.00
2019-02-11T10:26:17.115Z,2.00
2019-02-11T10:28:45.772Z,1.72
2019-02-11T10:31:14.471Z,1.80
2019-02-11T10:33:43.305Z,1.65
2019-02-11T10:36:12.015Z,1.85
2019-02-11T10:38:40.710Z,1.80
2019-02-11T10:41:09.454Z,1.55
2019-02-11T10:43:38.158Z,1.85
2019-02-11T10:46:06.831Z,1.95
2019-02-11T10:48:35.481Z,1.57
2019-02-11T10:51:04.245Z,1.77
2019-02-11T10:53:32.969Z,2.00
2019-02-11T10:56:01.607Z,1.40
2019-02-11T10:58:30.306Z,1.40
2019-02-11T11:00:59.074Z,1.75
2019-02-11T11:03:27.838Z,1.62
2019-02-11T11:05:56.593Z,1.20
2019-02-11T11:08:25.519Z,1.55
2019-02-11T11:10:54.156Z,1.20
2019-02-11T11:13:22.818Z,1.20
2019-02-11T11:15:51.528Z,1.50
2019-02-11T11:18:20.305Z,1.07
2019-02-11T11:20:48.971Z,1.35
2019-02-11T11:23:17.706Z,1.30
2019-02-11T11:25:46.673Z,1.35
2019-02-11T11:28:15.497Z,1.37
2019-02-11T11:30:44.331Z,0.93
2019-02-11T11:33:13.007Z,0.93
2019-02-11T11:35:41.754Z,0.80
2019-02-11T11:38:10.428Z,1.20
2019-02-11T11:40:39.524Z,1.00
2019-02-11T11:43:08.213Z,0.93
2019-02-11T11:45:36.975Z,0.90
2019-02-11T11:48:05.625Z,1.12
2019-02-11T11:50:34.411Z,1.00
2019-02-11T11:53:03.214Z,0.80
2019-02-11T11:55:32.819Z,1.20
2019-02-11T11:58:01.734Z,0.80
2019-02-11T12:00:31.648Z,0.82
2019-02-11T12:03:05.264Z,0.73
2019-02-11T12:05:33.391Z,0.80
2019-02-11T12:08:02.244Z,0.85
2019-02-11T12:10:30.967Z,0.45
2019-02-11T12:12:59.809Z,0.87
2019-02-11T12:15:28.586Z,0.60
2019-02-11T12:17:57.373Z,0.88
2019-02-11T12:20:27.305Z,0.68
2019-02-11T12:22:56.017Z,0.90
2019-02-11T12:25:24.713Z,0.70
2019-02-11T12:27:53.498Z,0.70
2019-02-11T12:30:23.329Z,0.82
2019-02-11T12:32:55.033Z,1.00
2019-02-11T12:35:22.523Z,1.22
2019-02-11T12:37:51.454Z,1.05
2019-02-11T12:40:20.231Z,1.20
2019-02-11T12:42:52.406Z,1.40
2019-02-11T12:45:20.188Z,0.90
2019-02-11T12:47:48.906Z,1.50
2019-02-11T12:50:17.929Z,1.37
2019-02-11T12:52:46.654Z,1.55
2019-02-11T12:55:15.459Z,1.10
2019-02-11T12:57:44.225Z,1.17
2019-02-11T13:00:17.972Z,1.02
2019-02-11T13:02:46.911Z,0.90
2019-02-11T13:05:15.698Z,1.67
2019-02-11T13:07:44.466Z,1.62
2019-02-11T13:10:15.367Z,1.22
2019-02-11T13:12:44.317Z,1.20
2019-02-11T13:15:34.065Z,1.00
2019-02-11T13:17:44.627Z,1.37
2019-02-11T13:20:13.432Z,1.00
2019-02-11T13:22:42.219Z,1.10
2019-02-11T13:25:11.761Z,1.00
2019-02-11T13:27:40.587Z,1.17
2019-02-11T13:30:11.806Z,1.20
2019-02-11T13:32:41.019Z,1.00
2019-02-11T13:35:09.803Z,1.20
2019-02-11T13:37:38.566Z,1.05
2019-02-11T13:40:07.449Z,1.05
2019-02-11T13:42:36.123Z,1.00
2019-02-11T13:45:07.158Z,1.32
2019-02-11T13:47:52.423Z,1.07
2019-02-11T13:50:06.399Z,0.98
2019-02-11T13:52:35.319Z,1.00
2019-02-11T13:55:04.481Z,1.03
2019-02-11T13:57:33.250Z,0.82
2019-02-11T14:00:03.091Z,1.20
2019-02-11T14:02:31.832Z,0.80
2019-02-11T14:05:00.762Z,1.10
2019-02-11T14:07:29.603Z,1.10
2019-02-11T14:10:02.370Z,1.00
2019-02-11T14:12:30.429Z,0.80
2019-02-11T14:14:59.167Z,1.00
2019-02-11T14:17:27.920Z,1.00
2019-02-11T14:20:01.610Z,0.98
2019-02-11T14:22:31.513Z,0.80
2019-02-11T14:25:00.528Z,0.93
2019-02-11T14:27:29.311Z,0.80
2019-02-11T14:29:58.031Z,0.72
2019-02-11T14:32:27.008Z,0.72
2019-02-11T14:34:55.818Z,0.98
2019-02-11T14:37:24.705Z,1.05
2019-02-11T14:39:53.537Z,0.80
2019-02-11T14:42:22.468Z,0.80
2019-02-11T14:44:51.574Z,0.98
2019-02-11T14:47:20.498Z,0.95
2019-02-11T14:49:49.328Z,0.88
2019-02-11T14:52:18.323Z,0.90
2019-02-11T14:54:47.870Z,1.10
2019-02-11T14:57:16.617Z,0.95
2019-02-11T14:59:45.367Z,1.10
2019-02-11T15:02:14.111Z,1.20
2019-02-11T15:04:43.029Z,1.25
2019-02-11T15:07:11.690Z,0.90
2019-02-11T15:09:40.425Z,1.12
2019-02-11T15:12:09.093Z,0.90
2019-02-11T15:14:37.808Z,1.20
2019-02-11T15:17:06.586Z,1.30
2019-02-11T15:19:35.375Z,0.95
2019-02-11T15:22:04.071Z,1.17
2019-02-11T15:24:32.784Z,1.30
2019-02-11T15:27:02.482Z,1.25
2019-02-11T15:29:31.173Z,1.25
2019-02-11T15:31:59.936Z,1.32
2019-02-11T15:34:28.692Z,1.40
2019-02-11T15:36:57.443Z,1.60
2019-02-11T15:39:26.170Z,1.50
2019-02-11T15:41:54.971Z,1.17
2019-02-11T15:44:23.683Z,1.30
2019-02-11T15:46:52.424Z,1.20
2019-02-11T15:49:21.129Z,1.52
2019-02-11T15:51:49.841Z,1.65
2019-02-11T15:54:18.607Z,1.40
2019-02-11T15:56:47.351Z,1.37
2019-02-11T15:59:16.080Z,1.75
2019-02-11T16:01:44.834Z,1.80
2019-02-11T16:04:13.678Z,1.37
2019-02-11T16:06:42.464Z,1.75
2019-02-11T16:09:11.217Z,1.32
2019-02-11T16:11:40.084Z,1.52
2019-02-11T16:14:08.754Z,1.60
2019-02-11T16:16:37.447Z,1.37
2019-02-11T16:19:06.124Z,1.65
2019-02-11T16:21:34.812Z,1.37
2019-02-11T16:24:03.495Z,1.40
2019-02-11T16:26:32.227Z,1.30
2019-02-11T16:29:01.193Z,1.30
2019-02-11T16:31:29.915Z,1.42
2019-02-11T16:33:58.634Z,1.60
2019-02-11T16:36:27.306Z,1.50
2019-02-11T16:38:59.095Z,1.65
2019-02-11T16:41:27.813Z,1.70
2019-02-11T16:43:56.748Z,1.37
2019-02-11T16:46:25.509Z,1.30
2019-02-11T16:49:00.296Z,1.40
2019-02-11T16:51:24.691Z,1.30
2019-02-11T16:53:53.396Z,1.52
2019-02-11T16:56:22.148Z,1.50
2019-02-11T16:58:51.015Z,1.53
2019-02-11T17:01:19.926Z,1.60
2019-02-11T17:03:48.636Z,1.50
2019-02-11T17:06:17.484Z,1.32
2019-02-11T17:08:46.306Z,1.57
2019-02-11T17:11:15.072Z,1.40
2019-02-11T17:13:43.876Z,1.72
2019-02-11T17:16:12.670Z,1.60
2019-02-11T17:18:41.422Z,1.52
2019-02-11T17:21:10.181Z,1.17
2019-02-11T17:23:38.981Z,1.82
2019-02-11T17:26:07.610Z,1.17
2019-02-11T17:28:36.300Z,1.30
2019-02-11T17:31:05.419Z,1.50
2019-02-11T17:33:34.171Z,1.32
2019-02-11T17:36:02.895Z,1.27
2019-02-11T17:38:31.652Z,1.42
2019-02-11T17:41:00.407Z,1.53
2019-02-11T17:43:29.098Z,1.37
2019-02-11T17:45:57.830Z,1.25
2019-02-11T17:48:27.008Z,1.30
2019-02-11T17:50:55.738Z,1.20
2019-02-11T17:53:24.499Z,1.45
2019-02-11T17:55:54.317Z,1.50
2019-02-11T17:58:22.981Z,1.40
2019-02-11T18:00:55.645Z,1.50
2019-02-11T18:03:24.406Z,1.20
2019-02-11T18:05:53.158Z,1.50
2019-02-11T18:08:21.848Z,1.77
2019-02-11T18:10:50.743Z,1.30
2019-02-11T18:13:19.754Z,1.70
2019-02-11T18:15:49.451Z,1.60
2019-02-11T18:18:18.189Z,1.15
2019-02-11T18:20:46.974Z,1.62
2019-02-11T18:23:16.080Z,1.55
2019-02-11T18:25:44.782Z,1.52
2019-02-11T18:28:13.543Z,1.40
2019-02-11T18:30:42.306Z,1.75
2019-02-11T18:33:11.650Z,1.57
2019-02-11T18:35:40.524Z,1.30
2019-02-11T18:38:09.267Z,2.15
2019-02-11T18:40:38.083Z,1.65
2019-02-11T18:43:06.714Z,1.07
2019-02-11T18:45:35.593Z,1.42
2019-02-11T18:48:04.437Z,1.12
2019-02-11T18:50:33.159Z,1.27
2019-02-11T18:53:01.972Z,1.50
2019-02-11T18:55:30.745Z,1.37
2019-02-11T18:57:59.502Z,1.62
2019-02-11T19:00:28.221Z,1.47
2019-02-11T19:02:56.989Z,1.62
2019-02-11T19:05:25.775Z,1.42
2019-02-11T19:07:54.610Z,1.90
2019-02-11T19:10:23.388Z,1.40
2019-02-11T19:12:52.094Z,1.40
2019-02-11T19:15:21.144Z,1.30
2019-02-11T19:17:49.992Z,1.42
2019-02-11T19:20:18.790Z,1.50
2019-02-11T19:22:47.563Z,1.47
2019-02-11T19:25:16.306Z,1.65
2019-02-11T19:27:45.332Z,1.50
2019-02-11T19:30:15.880Z,1.25
2019-02-11T19:32:44.826Z,1.60
2019-02-11T19:35:13.732Z,1.30
2019-02-11T19:37:42.471Z,1.22
2019-02-11T19:40:11.907Z,1.32
2019-02-11T19:42:40.786Z,1.17
2019-02-11T19:45:10.710Z,1.50
2019-02-11T19:47:39.467Z,1.37
2019-02-11T19:50:08.854Z,1.30
2019-02-11T19:52:37.766Z,1.20
2019-02-11T19:55:07.246Z,1.17
2019-02-11T19:57:35.978Z,1.00
2019-02-11T20:00:07.157Z,1.02
2019-02-11T20:02:36.282Z,1.12
2019-02-11T20:05:05.843Z,1.10
2019-02-11T20:07:35.046Z,1.00
2019-02-11T20:10:05.029Z,1.00
2019-02-11T20:12:33.876Z,1.07
2019-02-11T20:15:02.733Z,1.10
2019-02-11T20:17:31.753Z,1.20
2019-02-11T20:20:00.950Z,1.37
2019-02-11T20:22:32.522Z,1.02
2019-02-11T20:25:02.234Z,0.98
2019-02-11T20:27:31.540Z,1.10
2019-02-11T20:30:00.640Z,0.95
2019-02-11T20:32:29.576Z,1.05
2019-02-11T20:34:58.388Z,1.10
2019-02-11T20:37:27.262Z,0.85
2019-02-11T20:40:03.191Z,1.20
2019-02-11T20:42:28.048Z,1.47
2019-02-11T20:44:56.818Z,1.02
2019-02-11T20:47:25.654Z,0.80
2019-02-11T20:49:54.470Z,0.95
2019-02-11T20:52:23.251Z,1.52
2019-02-11T20:54:52.060Z,1.40
2019-02-11T20:57:20.858Z,1.50
2019-02-11T20:59:49.756Z,1.02
2019-02-11T21:02:18.694Z,0.98
2019-02-11T21:04:47.952Z,1.37
2019-02-11T21:07:16.721Z,1.12
2019-02-11T21:09:45.441Z,1.52
2019-02-11T21:12:14.204Z,1.35
2019-02-11T21:14:43.006Z,1.40
2019-02-11T21:17:11.787Z,1.00
2019-02-11T21:19:43.384Z,1.70
2019-02-11T21:22:12.265Z,0.98
2019-02-11T21:24:41.020Z,1.22
2019-02-11T21:27:09.956Z,0.82
2019-02-11T21:29:38.728Z,1.07
2019-02-11T21:32:07.586Z,1.47
2019-02-11T21:34:36.470Z,1.50
2019-02-11T21:37:05.142Z,1.67
2019-02-11T21:39:33.886Z,0.98
2019-02-11T21:42:02.605Z,0.93
2019-02-11T21:44:31.520Z,1.00
2019-02-11T21:47:00.269Z,1.20
2019-02-11T21:49:29.048Z,0.82
2019-02-11T21:51:57.805Z,1.10
2019-02-11T21:54:26.715Z,1.20
2019-02-11T21:56:55.503Z,1.20
2019-02-11T21:59:24.249Z,1.20
2019-02-11T22:01:52.944Z,0.97
2019-02-11T22:04:21.696Z,1.10
2019-02-11T22:06:50.506Z,1.50
2019-02-11T22:09:19.209Z,1.30
2019-02-11T22:11:48.064Z,1.30
2019-02-11T22:14:16.887Z,0.95
2019-02-11T22:16:46.575Z,1.00
2019-02-11T22:19:15.423Z,1.20
2019-02-11T22:21:47.083Z,0.72
2019-02-11T22:24:16.547Z,1.15
2019-02-11T22:26:45.694Z,0.90
2019-02-11T22:29:16.277Z,1.12
2019-02-11T22:31:45.587Z,0.70
2019-02-11T22:34:14.473Z,0.98
2019-02-11T22:36:43.155Z,1.10
2019-02-11T22:39:11.813Z,1.20
2019-02-11T22:41:40.601Z,0.90
2019-02-11T22:44:09.272Z,1.00
2019-02-11T22:46:38.022Z,1.20
2019-02-11T22:49:06.920Z,1.02
2019-02-11T22:51:35.748Z,0.90
2019-02-11T22:54:05.553Z,1.00
2019-02-11T22:56:34.254Z,0.87
2019-02-11T22:59:03.012Z,0.60
2019-02-11T23:01:31.995Z,0.85
2019-02-11T23:04:00.693Z,0.70
2019-02-11T23:06:29.373Z,1.00
2019-02-11T23:08:58.276Z,0.93
2019-02-11T23:11:27.111Z,0.90
2019-02-11T23:13:55.810Z,0.77
2019-02-11T23:16:24.591Z,0.80
2019-02-11T23:18:53.299Z,1.00
2019-02-11T23:21:23.057Z,0.90
2019-02-11T23:23:51.884Z,0.70
2019-02-11T23:26:20.662Z,0.72
2019-02-11T23:28:49.389Z,0.95
2019-02-11T23:31:18.166Z,1.02
2019-02-11T23:33:46.837Z,0.80
2019-02-11T23:36:15.491Z,1.17
2019-02-11T23:38:44.185Z,0.70
2019-02-11T23:41:12.824Z,0.90
2019-02-11T23:43:41.513Z,0.55
2019-02-11T23:46:10.188Z,0.88
2019-02-11T23:48:38.945Z,0.60
2019-02-11T23:51:07.670Z,0.90
2019-02-11T23:53:36.324Z,1.17
2019-02-11T23:56:04.997Z,0.70
2019-02-11T23:58:33.757Z,0.90
